Araripe, Brazil
Current Conditions -  °F | °C
As of 7:00 PM on Monday 24 Nov 2014 (Local Time) from SBJU Reporting Station
Clear Clear  
Wind Chill: 90°   Ceiling: Unl
Heat Index: 90°   Visibility: 6mi
Dew Point: 59°   Wind: 3mph
Humidity: 36%   Direction: 40°NE
Pressure: 29.94"   Gusts: NA
Location:  7.21°S, 40.05°W
Report Text: SBJU 242200Z 04003KT CAVOK 32/15 Q1014
Loading
Personal Weather Stations






























Interactive Weather Map New forecast layout! Learn more

10-Day Weather Forecast

Advertisements
Track Severe Weather on mobile